Time;durP1;ratioP1;P1;durP2;ratioP2;P2;SDS_P1;SDS_P2;PMS_P1;PMS_P2;Temp;Humidity;BMP_temperature;BMP_pressure;BME280_temperature;BME280_humidity;BME280_pressure;Samples;Min_cycle;Max_cycle;Signal;HPM_P1;HPM_P2
2023/03/16 00:00:18;;;;;;;1.73;1.63;;;;;-0.30;96235.00;;;;5073565;28;20214;-59
2023/03/16 00:02:47;;;;;;;1.40;1.30;;;;;-0.30;96241.00;;;;5073458;28;20211;-59
2023/03/16 00:05:14;;;;;;;0.83;0.83;;;;;-0.40;96241.00;;;;5073639;28;20249;-59
2023/03/16 00:07:43;;;;;;;0.80;0.80;;;;;-0.40;96236.00;;;;5073468;28;20192;-59
2023/03/16 00:10:12;;;;;;;1.73;1.63;;;;;-0.30;96248.00;;;;5055367;28;20220;-59
2023/03/16 00:12:42;;;;;;;1.37;1.27;;;;;-0.40;96249.00;;;;5073641;28;20295;-59
2023/03/16 00:15:10;;;;;;;6.13;2.37;;;;;-0.40;96237.00;;;;5073870;28;20276;-59
2023/03/16 00:17:38;;;;;;;1.00;1.00;;;;;-0.40;96236.00;;;;5073239;28;20193;-59
2023/03/16 00:20:09;;;;;;;1.03;1.03;;;;;-0.40;96245.00;;;;5073218;28;20192;-59
2023/03/16 00:22:36;;;;;;;0.87;0.87;;;;;-0.40;96244.00;;;;5073179;28;20219;-59
2023/03/16 00:25:04;;;;;;;1.00;1.00;;;;;-0.50;96241.00;;;;5055189;28;20196;-59
2023/03/16 00:27:32;;;;;;;4.23;2.33;;;;;-0.40;96241.00;;;;5073400;28;20651;-59
2023/03/16 00:30:02;;;;;;;1.50;1.40;;;;;-0.40;96241.00;;;;5073274;28;20219;-59
2023/03/16 00:32:31;;;;;;;1.20;1.10;;;;;-0.50;96242.00;;;;5072931;28;20725;-59
2023/03/16 00:35:00;;;;;;;0.90;0.90;;;;;-0.50;96237.00;;;;5073009;28;20224;-59
2023/03/16 00:37:30;;;;;;;1.50;1.40;;;;;-0.50;96237.00;;;;5055122;28;20197;-59
2023/03/16 00:39:58;;;;;;;0.83;0.83;;;;;-0.50;96244.00;;;;5073032;28;20192;-59
2023/03/16 00:42:28;;;;;;;1.57;1.47;;;;;-0.50;96240.00;;;;5054992;28;20216;-59
2023/03/16 00:44:56;;;;;;;1.47;1.37;;;;;-0.60;96242.00;;;;5073262;28;20261;-59
2023/03/16 00:47:24;;;;;;;1.20;1.20;;;;;-0.60;96235.00;;;;5073430;28;20188;-59
2023/03/16 00:49:52;;;;;;;2.00;1.73;;;;;-0.60;96231.00;;;;5073094;28;20227;-59
2023/03/16 00:52:19;;;;;;;0.90;0.90;;;;;-0.60;96237.00;;;;5054965;28;20211;-59
2023/03/16 00:54:49;;;;;;;1.00;1.00;;;;;-0.50;96234.00;;;;5054914;28;20199;-59
2023/03/16 00:57:18;;;;;;;1.23;1.23;;;;;-0.50;96229.00;;;;5072917;28;20188;-59
2023/03/16 00:59:45;;;;;;;1.73;1.63;;;;;-0.50;96229.00;;;;5072805;28;20663;-59
2023/03/16 01:02:14;;;;;;;1.00;1.00;;;;;-0.60;96223.00;;;;5072958;28;20299;-59
2023/03/16 01:04:42;;;;;;;3.57;1.80;;;;;-0.60;96219.00;;;;5077110;28;20519;-59
2023/03/16 01:07:12;;;;;;;1.13;1.13;;;;;-0.70;96214.00;;;;5076795;28;20690;-58
2023/03/16 01:09:40;;;;;;;0.90;0.90;;;;;-0.70;96216.00;;;;5058629;28;20301;-58
2023/03/16 01:12:11;;;;;;;1.77;1.67;;;;;-0.70;96210.00;;;;5076593;28;20211;-60
2023/03/16 01:14:39;;;;;;;0.93;0.93;;;;;-0.60;96219.00;;;;5076668;28;20650;-58
2023/03/16 01:17:08;;;;;;;1.93;1.80;;;;;-0.70;96208.00;;;;5058559;28;20222;-58
2023/03/16 01:19:36;;;;;;;1.93;1.77;;;;;-0.80;96218.00;;;;5076495;28;20194;-58
2023/03/16 01:22:03;;;;;;;2.27;2.07;;;;;-0.80;96216.00;;;;5076721;28;20224;-58
2023/03/16 01:24:32;;;;;;;3.03;2.23;;;;;-0.90;96210.00;;;;5076468;28;20192;-58
2023/03/16 01:27:00;;;;;;;2.13;2.03;;;;;-0.90;96217.00;;;;5059165;28;20244;-57
2023/03/16 01:29:29;;;;;;;2.93;2.73;;;;;-0.90;96214.00;;;;5077406;28;20596;-58
2023/03/16 01:31:57;;;;;;;1.77;1.67;;;;;-0.90;96209.00;;;;5076788;28;20304;-58
2023/03/16 01:34:24;;;;;;;1.20;1.20;;;;;-0.90;96208.00;;;;5076786;28;20191;-58
2023/03/16 01:36:52;;;;;;;2.27;2.13;;;;;-0.90;96209.00;;;;5076904;28;20191;-57
2023/03/16 01:39:20;;;;;;;1.50;1.40;;;;;-0.70;96209.00;;;;5076973;28;20674;-57
2023/03/16 01:41:48;;;;;;;2.43;2.23;;;;;-0.70;96216.00;;;;5058144;28;20227;-58
2023/03/16 01:44:17;;;;;;;2.07;1.97;;;;;-0.80;96211.00;;;;5076136;28;20554;-58
2023/03/16 01:46:45;;;;;;;1.33;1.30;;;;;-0.70;96215.00;;;;5076267;28;20196;-58
2023/03/16 01:49:14;;;;;;;3.47;2.40;;;;;-0.70;96213.00;;;;5076491;28;20212;-58
2023/03/16 01:51:46;;;;;;;2.70;2.47;;;;;-0.80;96215.00;;;;5076280;28;20212;-58
2023/03/16 01:54:21;;;;;;;1.70;1.57;;;;;-0.90;96227.00;;;;5076122;28;20180;-58
2023/03/16 01:56:56;;;;;;;2.00;1.90;;;;;-0.90;96207.00;;;;5075989;28;20262;-58
2023/03/16 01:59:29;;;;;;;1.43;1.33;;;;;-0.80;96211.00;;;;5076067;28;20228;-58
2023/03/16 02:01:59;;;;;;;1.40;1.30;;;;;-1.00;96209.00;;;;5075793;28;20694;-58
2023/03/16 02:04:38;;;;;;;1.33;1.20;;;;;-0.90;96204.00;;;;5075914;28;20636;-58
2023/03/16 02:07:08;;;;;;;1.23;1.23;;;;;-0.90;96198.00;;;;5075987;28;20619;-58
2023/03/16 02:09:39;;;;;;;1.47;1.47;;;;;-0.90;96197.00;;;;5057759;28;20284;-58
2023/03/16 02:12:08;;;;;;;0.80;0.80;;;;;-1.00;96193.00;;;;5057710;28;20555;-58
2023/03/16 02:14:35;;;;;;;1.07;1.07;;;;;-1.00;96183.00;;;;5075593;28;20233;-58
2023/03/16 02:17:04;;;;;;;1.70;0.90;;;;;-1.10;96185.00;;;;5075558;28;20200;-58
2023/03/16 02:19:41;;;;;;;1.77;1.67;;;;;-0.90;96192.00;;;;5075819;28;20601;-58
2023/03/16 02:22:10;;;;;;;1.10;1.10;;;;;-0.90;96196.00;;;;5075683;28;20775;-58
2023/03/16 02:24:38;;;;;;;0.83;0.83;;;;;-0.90;96195.00;;;;5075401;28;20195;-59
2023/03/16 02:27:09;;;;;;;0.90;0.90;;;;;-0.90;96200.00;;;;5075376;28;20196;-59
2023/03/16 02:29:54;;;;;;;0.70;0.70;;;;;-0.80;96200.00;;;;5075839;28;20227;-59
2023/03/16 02:32:24;;;;;;;1.70;1.60;;;;;-0.70;96209.00;;;;5075271;28;20233;-58
2023/03/16 02:34:52;;;;;;;1.10;1.00;;;;;-0.70;96203.00;;;;5075226;28;20554;-58
2023/03/16 02:37:20;;;;;;;1.17;1.17;;;;;-0.60;96197.00;;;;5057298;28;20555;-58
2023/03/16 02:39:48;;;;;;;1.30;1.20;;;;;-0.60;96194.00;;;;5075160;28;20223;-58
2023/03/16 02:42:20;;;;;;;1.33;1.23;;;;;-0.60;96195.00;;;;5057092;28;20265;-58
2023/03/16 02:44:54;;;;;;;1.67;1.57;;;;;-0.70;96187.00;;;;5075412;28;20187;-58
2023/03/16 02:47:30;;;;;;;0.90;0.90;;;;;-0.50;96194.00;;;;5057137;28;20188;-58
2023/03/16 02:49:57;;;;;;;1.17;1.17;;;;;-0.50;96180.00;;;;5075120;28;20199;-58
2023/03/16 02:52:25;;;;;;;1.70;1.60;;;;;-0.50;96176.00;;;;5074833;28;20215;-58
2023/03/16 02:54:52;;;;;;;1.87;1.77;;;;;-0.50;96168.00;;;;5074893;28;20279;-58
2023/03/16 02:57:20;;;;;;;1.47;1.37;;;;;-0.50;96164.00;;;;5075012;28;20206;-58
2023/03/16 02:59:48;;;;;;;1.03;1.03;;;;;-0.50;96175.00;;;;5056732;28;20199;-58
2023/03/16 03:02:16;;;;;;;1.07;1.07;;;;;-0.50;96157.00;;;;5074854;28;20212;-58
2023/03/16 03:04:45;;;;;;;1.93;1.80;;;;;-0.50;96159.00;;;;5074683;28;20192;-58
2023/03/16 03:07:13;;;;;;;2.77;2.27;;;;;-0.50;96162.00;;;;5074569;28;20202;-57
2023/03/16 03:09:42;;;;;;;1.90;1.80;;;;;-0.50;96155.00;;;;5074469;28;20207;-58
2023/03/16 03:12:10;;;;;;;1.57;1.47;;;;;-0.50;96146.00;;;;5074363;28;20286;-58
2023/03/16 03:14:37;;;;;;;2.90;1.67;;;;;-0.40;96133.00;;;;5074375;28;20191;-58
2023/03/16 03:17:07;;;;;;;2.30;2.10;;;;;-0.50;96150.00;;;;5074569;28;20198;-58
2023/03/16 03:19:35;;;;;;;2.07;1.97;;;;;-0.60;96153.00;;;;5074362;28;20185;-58
2023/03/16 03:22:05;;;;;;;1.77;1.67;;;;;-0.40;96150.00;;;;5056217;28;20227;-58
2023/03/16 03:24:33;;;;;;;1.93;1.40;;;;;-0.40;96161.00;;;;5074193;28;20189;-58
2023/03/16 03:27:04;;;;;;;2.40;2.03;;;;;-0.30;96157.00;;;;5055677;28;20197;-58
2023/03/16 03:29:34;;;;;;;3.93;2.97;;;;;-0.40;96151.00;;;;5074367;28;20262;-58
2023/03/16 03:32:01;;;;;;;2.43;2.23;;;;;-0.40;96145.00;;;;5074036;28;20272;-58
2023/03/16 03:34:31;;;;;;;1.77;1.67;;;;;-0.40;96145.00;;;;5073971;28;20204;-58
2023/03/16 03:36:59;;;;;;;2.33;1.90;;;;;-0.40;96138.00;;;;5074293;28;20685;-58
2023/03/16 03:39:27;;;;;;;2.03;1.93;;;;;-0.30;96131.00;;;;5074195;28;20212;-58
2023/03/16 03:41:54;;;;;;;1.43;1.33;;;;;-0.30;96146.00;;;;5074030;28;20212;-58
2023/03/16 03:44:22;;;;;;;1.57;1.47;;;;;-0.40;96144.00;;;;5073888;28;20201;-59
2023/03/16 03:46:51;;;;;;;1.30;1.20;;;;;-0.40;96144.00;;;;5073843;28;20202;-58
2023/03/16 03:49:18;;;;;;;1.70;1.60;;;;;-0.40;96131.00;;;;5073998;28;20558;-58
2023/03/16 03:51:47;;;;;;;1.63;1.53;;;;;-0.40;96131.00;;;;5073617;28;20235;-58
2023/03/16 03:54:15;;;;;;;2.23;2.03;;;;;-0.40;96141.00;;;;5073648;28;20219;-58
2023/03/16 03:56:42;;;;;;;2.67;2.47;;;;;-0.50;96139.00;;;;5073943;28;20227;-58
2023/03/16 03:59:09;;;;;;;1.73;1.67;;;;;-0.40;96137.00;;;;5073861;28;20516;-58
2023/03/16 04:01:37;;;;;;;1.20;1.20;;;;;-0.40;96135.00;;;;5073443;28;20209;-58
2023/03/16 04:04:04;;;;;;;1.80;1.70;;;;;-0.40;96130.00;;;;5073785;28;20203;-58
2023/03/16 04:06:32;;;;;;;2.07;1.97;;;;;-0.40;96140.00;;;;5073534;28;20327;-58
2023/03/16 04:09:00;;;;;;;2.03;1.87;;;;;-0.40;96135.00;;;;5073469;28;20194;-58
2023/03/16 04:11:28;;;;;;;1.30;1.20;;;;;-0.50;96128.00;;;;5073833;28;20212;-58
2023/03/16 04:13:55;;;;;;;1.63;1.53;;;;;-0.50;96134.00;;;;5073382;28;20652;-58
2023/03/16 04:16:25;;;;;;;3.73;2.17;;;;;-0.50;96127.00;;;;5073553;28;20555;-58
2023/03/16 04:18:53;;;;;;;1.67;1.57;;;;;-0.40;96131.00;;;;5073301;28;20200;-58
2023/03/16 04:21:21;;;;;;;1.00;1.00;;;;;-0.40;96132.00;;;;5073183;28;20707;-58
2023/03/16 04:23:53;;;;;;;1.13;1.13;;;;;-0.30;96125.00;;;;5073195;28;20205;-57
2023/03/16 04:26:33;;;;;;;2.57;1.80;;;;;-0.60;96125.00;;;;5012170;28;20246;-67
2023/03/16 04:29:01;;;;;;;1.00;1.00;;;;;-0.70;96128.00;;;;5013387;28;20197;-68
2023/03/16 04:31:29;;;;;;;2.30;1.40;;;;;-0.70;96125.00;;;;5013266;28;20697;-69
2023/03/16 04:33:57;;;;;;;1.27;1.23;;;;;-0.60;96122.00;;;;5013240;28;20201;-69
2023/03/16 04:36:24;;;;;;;1.20;1.20;;;;;-0.80;96127.00;;;;5013836;28;20190;-69
2023/03/16 04:38:52;;;;;;;1.63;1.53;;;;;-0.90;96125.00;;;;5013375;28;20199;-69
2023/03/16 04:41:19;;;;;;;2.60;1.83;;;;;-0.90;96125.00;;;;5013248;28;20182;-69
2023/03/16 04:43:48;;;;;;;1.77;1.67;;;;;-0.80;96126.00;;;;5013168;28;20220;-69
2023/03/16 04:46:15;;;;;;;1.60;1.50;;;;;-0.80;96113.00;;;;5013701;28;20739;-69
2023/03/16 04:48:43;;;;;;;2.13;2.03;;;;;-0.90;96116.00;;;;5013628;28;20204;-69
2023/03/16 04:51:10;;;;;;;1.50;1.43;;;;;-0.80;96117.00;;;;5013834;28;20213;-69
2023/03/16 04:53:38;;;;;;;1.63;1.47;;;;;-0.70;96119.00;;;;5013226;28;20198;-69
2023/03/16 04:56:06;;;;;;;1.23;1.20;;;;;-0.70;96116.00;;;;5013369;28;20225;-69
2023/03/16 04:58:34;;;;;;;1.90;1.80;;;;;-0.80;96103.00;;;;5013602;28;20197;-69
2023/03/16 05:01:02;;;;;;;3.00;1.73;;;;;-0.80;96108.00;;;;5013159;28;20190;-69
2023/03/16 05:03:30;;;;;;;1.03;1.03;;;;;-1.00;96116.00;;;;5013796;28;20198;-69
2023/03/16 05:05:57;;;;;;;1.97;1.83;;;;;-0.90;96113.00;;;;5013026;28;20221;-69
2023/03/16 05:08:25;;;;;;;1.93;1.80;;;;;-0.80;96109.00;;;;5013192;28;20196;-68
2023/03/16 05:10:56;;;;;;;1.73;1.63;;;;;-0.80;96112.00;;;;5013486;28;20221;-68
2023/03/16 05:13:23;;;;;;;2.10;2.00;;;;;-0.80;96106.00;;;;5013287;28;20181;-68
2023/03/16 05:15:52;;;;;;;1.43;1.40;;;;;-0.80;96105.00;;;;5012923;28;20213;-69
2023/03/16 05:18:21;;;;;;;1.17;1.17;;;;;-0.70;96108.00;;;;5013011;28;20197;-68
2023/03/16 05:20:50;;;;;;;1.07;1.07;;;;;-0.60;96109.00;;;;5012895;28;20190;-69
2023/03/16 05:23:18;;;;;;;1.40;1.30;;;;;-0.60;96115.00;;;;5012918;28;20200;-69
2023/03/16 05:25:47;;;;;;;1.73;1.63;;;;;-0.60;96115.00;;;;5012718;28;20716;-69
2023/03/16 05:28:14;;;;;;;1.10;1.10;;;;;-0.70;96118.00;;;;5012842;28;20198;-69
2023/03/16 05:30:43;;;;;;;0.80;0.80;;;;;-0.70;96123.00;;;;5012812;28;20553;-69
2023/03/16 05:33:11;;;;;;;1.00;1.00;;;;;-0.70;96113.00;;;;5012800;28;20193;-68
2023/03/16 05:35:40;;;;;;;1.70;1.60;;;;;-0.70;96111.00;;;;5012697;28;20296;-69
2023/03/16 05:38:08;;;;;;;4.53;2.77;;;;;-0.70;96104.00;;;;5013000;28;20202;-69
2023/03/16 05:40:36;;;;;;;0.93;0.93;;;;;-0.70;96103.00;;;;5012724;28;20196;-68
2023/03/16 05:43:04;;;;;;;2.67;1.97;;;;;-0.60;96111.00;;;;5012692;28;20228;-69
2023/03/16 05:45:32;;;;;;;1.93;1.83;;;;;-0.70;96108.00;;;;4995032;28;20803;-68
2023/03/16 05:48:00;;;;;;;1.63;1.53;;;;;-0.60;96110.00;;;;5012946;28;20607;-69
2023/03/16 05:50:27;;;;;;;1.70;1.60;;;;;-0.60;96100.00;;;;5016054;28;20217;-69
2023/03/16 05:52:56;;;;;;;2.00;1.77;;;;;-0.60;96095.00;;;;5016435;28;20265;-68
2023/03/16 05:55:23;;;;;;;2.57;1.80;;;;;-0.50;96096.00;;;;5016102;28;20209;-68
2023/03/16 05:57:51;;;;;;;1.67;1.57;;;;;-0.50;96088.00;;;;4998592;28;20678;-68
2023/03/16 06:00:19;;;;;;;2.20;2.10;;;;;-0.50;96089.00;;;;5016014;28;20198;-68
2023/03/16 06:02:48;;;;;;;1.90;1.80;;;;;-0.50;96084.00;;;;5016026;28;20193;-68
2023/03/16 06:05:16;;;;;;;2.60;1.73;;;;;-0.50;96082.00;;;;5015893;28;20591;-68
2023/03/16 06:07:44;;;;;;;1.43;1.33;;;;;-0.50;96082.00;;;;5016005;28;20199;-69
2023/03/16 06:10:13;;;;;;;1.47;1.40;;;;;-0.50;96078.00;;;;5015870;28;20200;-69
2023/03/16 06:12:41;;;;;;;1.67;1.57;;;;;-0.50;96084.00;;;;5015827;28;20210;-69
2023/03/16 06:15:10;;;;;;;1.03;1.03;;;;;-0.50;96092.00;;;;5015992;28;20217;-69
2023/03/16 06:17:40;;;;;;;1.57;1.47;;;;;-0.50;96096.00;;;;4998228;28;20194;-69
2023/03/16 06:20:11;;;;;;;1.30;1.30;;;;;-0.60;96101.00;;;;5015923;28;20201;-70
2023/03/16 06:22:40;;;;;;;1.07;1.07;;;;;-0.50;96102.00;;;;5016192;28;20189;-69
2023/03/16 06:25:09;;;;;;;1.33;1.23;;;;;-0.40;96102.00;;;;5015596;28;20248;-69
2023/03/16 06:27:38;;;;;;;1.57;1.47;;;;;-0.20;96093.00;;;;4997834;28;20204;-69
2023/03/16 06:30:07;;;;;;;1.17;1.17;;;;;-0.20;96092.00;;;;5015435;28;20200;-69
2023/03/16 06:32:35;;;;;;;1.73;1.63;;;;;-0.10;96103.00;;;;5015334;28;20209;-69
2023/03/16 06:35:02;;;;;;;1.40;1.37;;;;;0.00;96094.00;;;;5015490;28;20620;-69
2023/03/16 06:37:31;;;;;;;2.00;1.90;;;;;0.00;96102.00;;;;5015364;28;20216;-69
2023/03/16 06:39:58;;;;;;;1.57;1.47;;;;;0.10;96104.00;;;;5015324;28;20203;-69
2023/03/16 06:42:26;;;;;;;3.17;2.43;;;;;0.00;96105.00;;;;5015553;28;20206;-69
2023/03/16 06:44:55;;;;;;;2.00;1.90;;;;;0.10;96100.00;;;;5015174;28;20216;-69
2023/03/16 06:47:22;;;;;;;1.57;1.57;;;;;0.10;96106.00;;;;5015210;28;20203;-69
2023/03/16 06:49:53;;;;;;;3.23;2.30;;;;;0.20;96103.00;;;;5015123;28;20277;-69
2023/03/16 06:52:20;;;;;;;3.17;2.97;;;;;0.20;96098.00;;;;5015101;28;20195;-69
2023/03/16 06:54:48;;;;;;;1.80;1.70;;;;;0.30;96100.00;;;;5015486;28;20229;-69
2023/03/16 06:57:15;;;;;;;5.50;2.60;;;;;0.40;96106.00;;;;5015065;28;20201;-69
2023/03/16 06:59:43;;;;;;;1.93;1.83;;;;;0.40;96109.00;;;;5014453;28;20196;-69
2023/03/16 07:02:13;;;;;;;1.83;1.57;;;;;0.40;96098.00;;;;5014547;28;20197;-69
2023/03/16 07:04:40;;;;;;;1.63;1.53;;;;;0.40;96107.00;;;;5014790;28;20704;-69
2023/03/16 07:07:08;;;;;;;2.10;1.23;;;;;0.10;96102.00;;;;5015121;28;20203;-69
2023/03/16 07:09:36;;;;;;;1.03;1.03;;;;;-0.20;96101.00;;;;5013065;28;20465;-67
2023/03/16 07:12:03;;;;;;;1.43;1.27;;;;;0.00;96090.00;;;;5011163;28;20220;-72
2023/03/16 07:14:31;;;;;;;0.90;0.90;;;;;0.20;96097.00;;;;4994778;28;20630;-71
2023/03/16 07:16:59;;;;;;;1.13;1.13;;;;;0.40;96097.00;;;;4995472;28;20549;-73
2023/03/16 07:19:28;;;;;;;1.33;1.23;;;;;0.50;96100.00;;;;5012530;28;20692;-73
2023/03/16 07:21:56;;;;;;;1.63;1.53;;;;;0.60;96109.00;;;;5012546;28;20196;-72
2023/03/16 07:24:24;;;;;;;1.40;1.37;;;;;0.70;96108.00;;;;5012668;28;20250;-72
2023/03/16 07:26:51;;;;;;;0.90;0.90;;;;;0.70;96105.00;;;;5013053;28;20192;-67
2023/03/16 07:29:19;;;;;;;1.17;1.10;;;;;0.90;96100.00;;;;5010411;28;20203;-67
2023/03/16 07:31:46;;;;;;;0.97;0.97;;;;;0.80;96101.00;;;;5012206;28;20702;-66
2023/03/16 07:34:14;;;;;;;1.20;1.20;;;;;0.90;96102.00;;;;5011831;28;20225;-67
2023/03/16 07:36:43;;;;;;;1.43;1.07;;;;;1.00;96112.00;;;;5012757;28;20203;-67
2023/03/16 07:39:13;;;;;;;1.40;1.40;;;;;1.10;96111.00;;;;5010751;28;20207;-66
2023/03/16 07:41:40;;;;;;;1.50;1.40;;;;;1.10;96105.00;;;;5008248;28;20695;-67
2023/03/16 07:44:08;;;;;;;1.10;1.10;;;;;1.10;96106.00;;;;5011388;28;20230;-67
2023/03/16 07:46:35;;;;;;;1.83;1.73;;;;;1.30;96106.00;;;;5012315;28;20205;-67
2023/03/16 07:49:02;;;;;;;2.40;2.13;;;;;1.50;96105.00;;;;5011046;28;20246;-67
2023/03/16 07:51:30;;;;;;;3.00;1.30;;;;;1.60;96104.00;;;;5010998;28;20571;-67
2023/03/16 07:53:59;;;;;;;1.20;1.20;;;;;1.70;96110.00;;;;5011417;28;20200;-66
2023/03/16 07:56:26;;;;;;;1.53;1.43;;;;;1.70;96109.00;;;;5012278;28;20203;-67
2023/03/16 07:58:53;;;;;;;1.47;1.43;;;;;1.80;96111.00;;;;5011437;28;20263;-67
2023/03/16 08:01:21;;;;;;;1.67;1.63;;;;;2.00;96115.00;;;;5012149;28;20661;-67
2023/03/16 08:03:49;;;;;;;4.50;1.47;;;;;2.00;96111.00;;;;5011323;28;20288;-67
2023/03/16 08:06:17;;;;;;;1.73;1.47;;;;;2.00;96113.00;;;;5011878;28;20340;-67
2023/03/16 08:08:44;;;;;;;1.80;1.70;;;;;2.10;96112.00;;;;5010619;28;20211;-67
2023/03/16 08:11:13;;;;;;;1.33;1.33;;;;;2.10;96116.00;;;;5011727;28;20710;-67
2023/03/16 08:13:43;;;;;;;0.90;0.90;;;;;2.60;96112.00;;;;5010941;28;20203;-68
2023/03/16 08:16:12;;;;;;;1.07;1.07;;;;;2.90;96111.00;;;;5012143;28;20533;-68
2023/03/16 08:18:40;;;;;;;1.83;1.63;;;;;3.20;96103.00;;;;5011108;28;20193;-67
2023/03/16 08:21:08;;;;;;;2.30;2.10;;;;;3.00;96100.00;;;;4994307;28;20197;-67
2023/03/16 08:23:36;;;;;;;1.23;1.23;;;;;3.20;96105.00;;;;5010670;28;20727;-66
2023/03/16 08:26:07;;;;;;;1.00;1.00;;;;;3.20;96090.00;;;;5011321;28;20234;-65
2023/03/16 08:28:36;;;;;;;1.00;1.00;;;;;3.30;96091.00;;;;5010454;28;20194;-68
2023/03/16 08:31:07;;;;;;;2.40;2.10;;;;;3.20;96090.00;;;;5011825;28;20676;-67
2023/03/16 08:33:34;;;;;;;1.30;1.30;;;;;3.30;96074.00;;;;4993636;28;20201;-68
2023/03/16 08:36:02;;;;;;;1.20;1.20;;;;;3.50;96073.00;;;;5011876;28;20616;-66
2023/03/16 08:38:29;;;;;;;1.60;1.50;;;;;3.30;96075.00;;;;5011373;28;20197;-66
2023/03/16 08:40:57;;;;;;;0.63;0.63;;;;;3.20;96080.00;;;;5011335;28;20201;-66
2023/03/16 08:43:25;;;;;;;1.17;1.17;;;;;3.30;96081.00;;;;5011158;28;20556;-66
2023/03/16 08:45:54;;;;;;;1.40;1.30;;;;;3.50;96075.00;;;;5011498;28;20217;-66
2023/03/16 08:48:22;;;;;;;0.83;0.83;;;;;3.70;96073.00;;;;5011058;28;20204;-66
2023/03/16 08:50:50;;;;;;;1.03;1.03;;;;;3.70;96076.00;;;;5011509;28;20201;-66
2023/03/16 08:53:18;;;;;;;7.73;1.00;;;;;3.70;96078.00;;;;5010731;28;20210;-66
2023/03/16 08:55:46;;;;;;;0.90;0.90;;;;;3.90;96076.00;;;;4993805;28;20700;-66
2023/03/16 08:58:14;;;;;;;1.33;1.33;;;;;4.10;96070.00;;;;5009471;28;20683;-66
2023/03/16 09:00:41;;;;;;;1.60;1.40;;;;;4.10;96078.00;;;;5009982;28;20201;-66
2023/03/16 09:03:10;;;;;;;1.27;1.10;;;;;4.20;96076.00;;;;5011135;28;20197;-66
2023/03/16 09:05:37;;;;;;;2.63;1.33;;;;;4.30;96061.00;;;;5010660;28;20225;-65
2023/03/16 09:08:05;;;;;;;0.93;0.90;;;;;4.30;96060.00;;;;5010953;28;20204;-66
2023/03/16 09:10:32;;;;;;;0.60;0.60;;;;;4.50;96064.00;;;;5010738;28;20196;-66
2023/03/16 09:13:00;;;;;;;1.17;1.17;;;;;4.20;96074.00;;;;5010609;28;20700;-66
2023/03/16 09:15:27;;;;;;;1.00;1.00;;;;;4.30;96079.00;;;;5010588;28;20225;-67
2023/03/16 09:17:58;;;;;;;0.93;0.93;;;;;4.30;96083.00;;;;5010921;28;20201;-66
2023/03/16 09:20:27;;;;;;;1.10;1.10;;;;;4.40;96077.00;;;;5010905;28;20232;-67
2023/03/16 09:22:56;;;;;;;1.07;1.07;;;;;4.70;96078.00;;;;4993388;28;20197;-67
2023/03/16 09:25:25;;;;;;;1.07;1.07;;;;;4.60;96079.00;;;;5014313;28;20787;-65
2023/03/16 09:27:52;;;;;;;1.50;1.40;;;;;4.70;96069.00;;;;5014613;28;20279;-68
2023/03/16 09:30:20;;;;;;;3.40;1.23;;;;;4.80;96076.00;;;;5014508;28;20692;-67
2023/03/16 09:32:47;;;;;;;3.13;1.13;;;;;5.00;96070.00;;;;5012976;28;20233;-67
2023/03/16 09:35:15;;;;;;;0.77;0.77;;;;;5.40;96053.00;;;;5014163;28;20303;-66
2023/03/16 09:37:44;;;;;;;1.23;1.23;;;;;5.70;96047.00;;;;5010532;28;20247;-66
2023/03/16 09:40:21;;;;;;;1.27;1.27;;;;;5.70;96053.00;;;;5014723;28;20205;-66
2023/03/16 09:42:58;;;;;;;2.67;1.93;;;;;6.20;96044.00;;;;5012229;28;20240;-66
2023/03/16 09:45:33;;;;;;;1.13;1.13;;;;;6.20;96049.00;;;;5014654;28;20213;-66
2023/03/16 09:48:04;;;;;;;0.70;0.70;;;;;6.20;96044.00;;;;5014162;28;20240;-66
2023/03/16 09:50:37;;;;;;;0.90;0.90;;;;;6.30;96047.00;;;;5010547;28;20553;-66
2023/03/16 09:53:14;;;;;;;1.13;1.13;;;;;6.30;96056.00;;;;5013750;28;20685;-66
2023/03/16 09:55:45;;;;;;;0.80;0.80;;;;;6.60;96055.00;;;;5014476;28;20213;-66
2023/03/16 09:58:18;;;;;;;0.87;0.87;;;;;6.60;96054.00;;;;5013751;28;20819;-66
2023/03/16 10:00:55;;;;;;;1.07;1.07;;;;;6.60;96049.00;;;;5014500;28;20190;-65
2023/03/16 10:03:42;;;;;;;0.87;0.87;;;;;6.60;96051.00;;;;5009221;28;20192;-66
2023/03/16 10:06:12;;;;;;;1.20;1.20;;;;;6.90;96039.00;;;;5013980;28;20688;-66
2023/03/16 10:08:45;;;;;;;0.73;0.73;;;;;6.90;96039.00;;;;5014056;28;20255;-66
2023/03/16 10:11:28;;;;;;;1.10;1.10;;;;;6.60;96041.00;;;;5013585;28;20212;-66
2023/03/16 10:14:01;;;;;;;1.60;1.07;;;;;6.80;96042.00;;;;5014372;28;20192;-66
2023/03/16 10:16:34;;;;;;;0.77;0.77;;;;;7.00;96037.00;;;;5013988;28;20642;-66
2023/03/16 10:19:08;;;;;;;1.20;1.20;;;;;7.20;96033.00;;;;5013664;28;20664;-66
2023/03/16 10:21:40;;;;;;;0.73;0.73;;;;;7.40;96032.00;;;;5013781;28;20184;-66
2023/03/16 10:24:24;;;;;;;1.03;1.03;;;;;7.50;96029.00;;;;5013478;28;20233;-66
2023/03/16 10:26:58;;;;;;;0.80;0.80;;;;;7.70;96024.00;;;;4992236;28;20497;-66
2023/03/16 10:29:28;;;;;;;0.80;0.80;;;;;8.00;96013.00;;;;5013574;28;20211;-67
2023/03/16 10:31:59;;;;;;;0.60;0.60;;;;;8.00;96000.00;;;;5012699;28;20217;-66
2023/03/16 10:34:26;;;;;;;1.03;1.03;;;;;8.20;96001.00;;;;4994541;28;20282;-66
2023/03/16 10:36:55;;;;;;;0.83;0.83;;;;;8.20;95999.00;;;;5013490;28;20205;-66
2023/03/16 10:39:25;;;;;;;0.73;0.73;;;;;8.30;96001.00;;;;5013372;28;20346;-66
2023/03/16 10:41:57;;;;;;;0.53;0.53;;;;;8.30;95998.00;;;;5013220;28;20193;-66
2023/03/16 10:44:26;;;;;;;0.83;0.83;;;;;8.60;95996.00;;;;5012449;28;20233;-66
2023/03/16 10:47:02;;;;;;;0.90;0.90;;;;;8.60;95983.00;;;;5013152;28;20660;-66
2023/03/16 10:49:35;;;;;;;1.10;1.10;;;;;8.50;95982.00;;;;5010285;28;20220;-66
2023/03/16 10:52:12;;;;;;;0.97;0.97;;;;;8.80;95989.00;;;;5009279;28;20262;-66
2023/03/16 10:54:48;;;;;;;0.60;0.60;;;;;9.10;95990.00;;;;5011014;28;20700;-66
2023/03/16 10:57:24;;;;;;;0.90;0.90;;;;;9.30;95981.00;;;;5012261;28;20220;-66
2023/03/16 10:59:53;;;;;;;0.80;0.80;;;;;9.20;95988.00;;;;4995620;28;20193;-66
2023/03/16 11:02:26;;;;;;;0.60;0.60;;;;;9.30;95987.00;;;;5008521;28;20206;-66
2023/03/16 11:04:54;;;;;;;0.83;0.83;;;;;9.70;95985.00;;;;5009118;28;20243;-66
2023/03/16 11:07:24;;;;;;;1.97;1.40;;;;;9.70;95988.00;;;;5013108;28;20568;-68
2023/03/16 11:09:54;;;;;;;0.70;0.70;;;;;10.00;95989.00;;;;5012837;28;20193;-65
2023/03/16 11:12:26;;;;;;;1.00;1.00;;;;;9.90;95989.00;;;;5012520;28;20572;-65
2023/03/16 11:14:55;;;;;;;0.57;0.57;;;;;10.20;95988.00;;;;5011575;28;20265;-65
2023/03/16 11:17:31;;;;;;;0.60;0.60;;;;;10.20;95984.00;;;;5011873;28;20228;-65
2023/03/16 11:20:04;;;;;;;1.13;1.13;;;;;10.30;95987.00;;;;5012610;28;20719;-66
2023/03/16 11:22:32;;;;;;;1.40;1.40;;;;;10.60;95986.00;;;;5012768;28;20208;-66
2023/03/16 11:25:12;;;;;;;0.63;0.63;;;;;10.80;95977.00;;;;5012725;28;20233;-66
2023/03/16 11:27:45;;;;;;;0.80;0.80;;;;;10.70;95976.00;;;;5012613;28;20209;-66
2023/03/16 11:30:18;;;;;;;0.73;0.73;;;;;10.70;95971.00;;;;5012273;28;20196;-66
2023/03/16 11:32:49;;;;;;;0.77;0.77;;;;;11.00;95975.00;;;;5011117;28;20209;-65
2023/03/16 11:35:19;;;;;;;0.60;0.60;;;;;11.50;95971.00;;;;5012288;28;20221;-65
2023/03/16 11:37:57;;;;;;;0.60;0.60;;;;;11.60;95970.00;;;;5012023;28;20232;-66
2023/03/16 11:40:40;;;;;;;0.60;0.60;;;;;12.00;95957.00;;;;5008270;28;20185;-66
2023/03/16 11:43:31;;;;;;;0.60;0.60;;;;;11.90;95952.00;;;;5011917;28;20189;-66
2023/03/16 11:46:10;;;;;;;0.73;0.73;;;;;11.80;95948.00;;;;5007968;28;20225;-66
2023/03/16 11:48:41;;;;;;;0.67;0.67;;;;;12.20;95942.00;;;;4994114;28;20264;-66
2023/03/16 11:51:17;;;;;;;1.10;1.10;;;;;12.70;95948.00;;;;5012491;28;20202;-66
2023/03/16 11:54:04;;;;;;;0.73;0.73;;;;;12.40;95960.00;;;;4994404;28;20219;-66
2023/03/16 11:56:35;;;;;;;0.70;0.70;;;;;12.90;95948.00;;;;5011963;28;20625;-66
2023/03/16 11:59:27;;;;;;;1.03;1.03;;;;;12.80;95942.00;;;;5010496;28;20197;-66
2023/03/16 12:02:05;;;;;;;0.60;0.60;;;;;12.80;95940.00;;;;5002502;28;20271;-66
2023/03/16 12:04:49;;;;;;;1.47;1.37;;;;;12.90;95937.00;;;;5011744;28;20229;-66
2023/03/16 12:07:32;;;;;;;0.90;0.90;;;;;12.80;95935.00;;;;4994105;28;20189;-66
2023/03/16 12:10:10;;;;;;;0.60;0.60;;;;;13.00;95945.00;;;;5011741;28;20200;-66
2023/03/16 12:12:52;;;;;;;0.80;0.80;;;;;12.80;95953.00;;;;5011266;28;20205;-66
2023/03/16 12:15:33;;;;;;;0.67;0.67;;;;;13.10;95948.00;;;;5011876;28;20225;-66
2023/03/16 12:18:08;;;;;;;0.93;0.93;;;;;13.00;95949.00;;;;5008288;28;20248;-66
2023/03/16 12:20:43;;;;;;;1.20;1.10;;;;;12.90;95932.00;;;;5011897;28;20196;-65
2023/03/16 12:23:18;;;;;;;1.13;1.03;;;;;12.90;95940.00;;;;4993769;28;20676;-65
2023/03/16 12:25:48;;;;;;;0.77;0.77;;;;;12.70;95940.00;;;;5011716;28;20229;-65
2023/03/16 12:28:22;;;;;;;0.80;0.80;;;;;12.80;95934.00;;;;5006876;28;20198;-65
2023/03/16 12:30:58;;;;;;;0.67;0.67;;;;;13.30;95938.00;;;;5007958;28;20200;-65
2023/03/16 12:33:35;;;;;;;0.87;0.87;;;;;12.90;95923.00;;;;4992185;28;20779;-65